createdAt,value
2023-03-21T00:01:56.849Z,1.00
2023-03-21T00:04:25.449Z,0.87
2023-03-21T00:06:53.901Z,0.40
2023-03-21T00:09:22.539Z,0.40
2023-03-21T00:11:50.875Z,0.50
2023-03-21T00:14:20.014Z,0.47
2023-03-21T00:16:50.530Z,0.73
2023-03-21T00:19:20.849Z,0.70
2023-03-21T00:22:08.827Z,0.57
2023-03-21T00:24:37.721Z,0.40
2023-03-21T00:27:34.559Z,0.57
2023-03-21T00:29:56.647Z,0.37
2023-03-21T00:32:24.984Z,0.57
2023-03-21T00:35:03.871Z,0.50
2023-03-21T00:37:43.052Z,0.40
2023-03-21T00:40:23.155Z,0.60
2023-03-21T00:42:55.089Z,0.70
2023-03-21T00:45:25.429Z,0.30
2023-03-21T00:47:53.851Z,0.77
2023-03-21T00:50:23.569Z,0.53
2023-03-21T00:52:51.849Z,0.40
2023-03-21T00:55:20.214Z,0.70
2023-03-21T00:57:56.110Z,0.60
2023-03-21T01:00:29.348Z,0.57
2023-03-21T01:03:04.454Z,0.57
2023-03-21T01:05:57.082Z,0.50
2023-03-21T01:08:31.200Z,0.43
2023-03-21T01:11:03.243Z,0.60
2023-03-21T01:13:33.110Z,0.90
2023-03-21T01:16:05.284Z,0.70
2023-03-21T01:18:35.856Z,0.50
2023-03-21T01:21:08.056Z,0.53
2023-03-21T01:23:36.791Z,0.50
2023-03-21T01:26:05.404Z,0.53
2023-03-21T01:28:33.764Z,0.40
2023-03-21T01:31:02.200Z,0.50
2023-03-21T01:33:30.624Z,0.70
2023-03-21T01:36:10.291Z,0.40
2023-03-21T01:38:42.575Z,0.47
2023-03-21T01:41:19.797Z,0.40
2023-03-21T01:43:49.685Z,0.50
2023-03-21T01:46:22.412Z,0.50
2023-03-21T01:48:51.877Z,0.40
2023-03-21T01:51:20.166Z,0.60
2023-03-21T01:53:49.820Z,0.73
2023-03-21T01:56:19.875Z,0.60
2023-03-21T01:58:47.934Z,0.77
2023-03-21T02:01:16.797Z,0.50
2023-03-21T02:03:51.291Z,0.77
2023-03-21T02:06:24.702Z,0.40
2023-03-21T02:08:54.458Z,0.73
2023-03-21T02:11:23.760Z,0.50
2023-03-21T02:13:55.822Z,0.43
2023-03-21T02:16:34.907Z,0.60
2023-03-21T02:19:12.685Z,0.60
2023-03-21T02:21:51.558Z,0.30
2023-03-21T02:24:31.331Z,0.40
2023-03-21T02:27:07.599Z,0.57
2023-03-21T02:30:20.205Z,0.63
2023-03-21T02:33:14.493Z,0.70
2023-03-21T02:35:56.840Z,0.50
2023-03-21T02:38:30.319Z,0.40
2023-03-21T02:41:05.335Z,0.40
2023-03-21T02:43:38.752Z,0.63
2023-03-21T02:46:09.336Z,0.37
2023-03-21T02:48:50.296Z,0.40
2023-03-21T02:51:20.009Z,0.40
2023-03-21T02:54:12.948Z,0.50
2023-03-21T02:56:41.483Z,0.40
2023-03-21T02:59:09.460Z,0.40
2023-03-21T03:01:37.436Z,0.53
2023-03-21T03:04:05.674Z,0.67
2023-03-21T03:06:38.295Z,0.67
2023-03-21T03:09:17.705Z,0.70
2023-03-21T03:11:46.085Z,0.57
2023-03-21T03:14:44.153Z,0.50
2023-03-21T03:17:21.549Z,0.43
2023-03-21T03:19:55.781Z,0.40
2023-03-21T03:22:26.009Z,0.40
2023-03-21T03:24:57.148Z,0.60
2023-03-21T03:27:27.003Z,0.37
2023-03-21T03:29:54.955Z,0.70
2023-03-21T03:32:27.164Z,0.60
2023-03-21T03:34:56.281Z,0.80
2023-03-21T03:37:27.497Z,0.63
2023-03-21T03:39:59.351Z,0.60
2023-03-21T03:42:29.263Z,0.60
2023-03-21T03:44:57.293Z,0.47
2023-03-21T03:47:32.897Z,0.40
2023-03-21T03:50:06.452Z,0.30
2023-03-21T03:52:40.023Z,0.60
2023-03-21T03:55:13.219Z,0.60
2023-03-21T03:57:42.188Z,0.40
2023-03-21T04:00:13.028Z,0.40
2023-03-21T04:02:41.042Z,0.67
2023-03-21T04:05:09.899Z,0.40
2023-03-21T04:07:38.189Z,0.50
2023-03-21T04:10:06.990Z,0.30
2023-03-21T04:12:36.324Z,0.70
2023-03-21T04:15:10.746Z,0.40
2023-03-21T04:17:39.575Z,0.50
2023-03-21T04:20:15.003Z,0.40
2023-03-21T04:22:46.676Z,0.50
2023-03-21T04:25:21.924Z,0.60
2023-03-21T04:27:55.616Z,0.50
2023-03-21T04:30:24.780Z,0.40
2023-03-21T04:32:56.697Z,0.37
2023-03-21T04:35:25.053Z,0.50
2023-03-21T04:37:53.073Z,0.60
2023-03-21T04:40:21.084Z,0.50
2023-03-21T04:42:49.430Z,0.57
2023-03-21T04:45:18.902Z,0.60
2023-03-21T04:47:47.166Z,0.63
2023-03-21T04:50:15.911Z,0.47
2023-03-21T04:52:45.611Z,0.50
2023-03-21T04:55:14.661Z,0.67
2023-03-21T04:57:42.663Z,0.47
2023-03-21T05:00:14.476Z,0.60
2023-03-21T05:02:43.939Z,0.50
2023-03-21T05:05:12.362Z,0.60
2023-03-21T05:07:40.376Z,0.70
2023-03-21T05:10:09.563Z,0.40
2023-03-21T05:12:37.554Z,0.63
2023-03-21T05:15:07.851Z,0.60
2023-03-21T05:17:36.615Z,0.50
2023-03-21T05:20:09.724Z,0.60
2023-03-21T05:22:40.784Z,0.67
2023-03-21T05:25:09.724Z,0.60
2023-03-21T05:27:37.744Z,0.83
2023-03-21T05:30:07.224Z,0.50
2023-03-21T05:32:35.627Z,0.50
2023-03-21T05:35:05.136Z,0.50
2023-03-21T05:37:33.079Z,0.33
2023-03-21T05:40:01.082Z,0.60
2023-03-21T05:42:29.190Z,0.60
2023-03-21T05:44:57.154Z,0.57
2023-03-21T05:47:25.125Z,0.70
2023-03-21T05:49:53.074Z,0.77
2023-03-21T05:52:22.639Z,1.00
2023-03-21T05:54:50.663Z,0.30
2023-03-21T05:57:19.213Z,0.80
2023-03-21T05:59:47.171Z,0.53
2023-03-21T06:02:15.711Z,0.53
2023-03-21T06:04:44.282Z,0.70
2023-03-21T06:07:12.267Z,0.50
2023-03-21T06:09:42.698Z,0.67
2023-03-21T06:12:10.670Z,0.57
2023-03-21T06:14:38.617Z,0.50
2023-03-21T06:17:06.602Z,0.90
2023-03-21T06:19:37.032Z,0.60
2023-03-21T06:22:05.148Z,0.60
2023-03-21T06:24:33.536Z,0.50
2023-03-21T06:27:04.077Z,0.70
2023-03-21T06:29:32.217Z,0.40
2023-03-21T06:32:00.707Z,0.30
2023-03-21T06:34:28.679Z,0.63
2023-03-21T06:36:56.954Z,0.80
2023-03-21T06:39:24.914Z,0.60
2023-03-21T06:41:52.866Z,0.47
2023-03-21T06:44:22.814Z,0.57
2023-03-21T06:46:50.965Z,0.40
2023-03-21T06:49:19.002Z,0.83
2023-03-21T06:51:46.973Z,0.73
2023-03-21T06:54:17.683Z,0.63
2023-03-21T06:56:45.806Z,0.50
2023-03-21T06:59:13.761Z,0.60
2023-03-21T07:01:43.805Z,0.70
2023-03-21T07:04:11.812Z,0.73
2023-03-21T07:06:39.802Z,0.50
2023-03-21T07:09:07.884Z,0.37
2023-03-21T07:11:36.904Z,0.50
2023-03-21T07:14:04.894Z,0.40
2023-03-21T07:16:34.930Z,0.60
2023-03-21T07:19:04.372Z,0.60
2023-03-21T07:21:32.750Z,0.40
2023-03-21T07:24:01.152Z,1.00
2023-03-21T07:26:29.250Z,0.30
2023-03-21T07:28:57.233Z,0.93
2023-03-21T07:31:26.752Z,0.93
2023-03-21T07:33:54.752Z,0.43
2023-03-21T07:36:26.564Z,0.53
2023-03-21T07:38:54.514Z,0.50
2023-03-21T07:41:22.491Z,0.70
2023-03-21T07:43:50.523Z,0.60
2023-03-21T07:46:18.622Z,0.50
2023-03-21T07:48:46.615Z,0.70
2023-03-21T07:51:14.686Z,0.70
2023-03-21T07:53:48.844Z,0.87
2023-03-21T07:56:17.022Z,0.67
2023-03-21T07:58:46.554Z,0.97
2023-03-21T08:01:14.552Z,0.50
2023-03-21T08:03:43.480Z,1.03
2023-03-21T08:06:11.719Z,1.53
2023-03-21T08:08:39.936Z,2.13
2023-03-21T08:11:09.503Z,2.03
2023-03-21T08:13:37.456Z,2.13
2023-03-21T08:16:05.985Z,2.57
2023-03-21T08:18:34.309Z,2.93
2023-03-21T08:21:02.832Z,2.60
2023-03-21T08:23:31.107Z,1.90
2023-03-21T08:26:01.514Z,2.17
2023-03-21T08:28:31.407Z,2.50
2023-03-21T08:30:59.454Z,3.90
2023-03-21T08:33:27.481Z,7.50
2023-03-21T08:35:55.756Z,9.83
2023-03-21T08:38:29.807Z,8.63
2023-03-21T08:41:05.436Z,5.13
2023-03-21T08:43:35.592Z,5.17
2023-03-21T08:46:04.536Z,4.10
2023-03-21T08:48:32.610Z,3.67
2023-03-21T08:51:01.415Z,2.90
2023-03-21T08:53:30.254Z,3.50
2023-03-21T08:55:58.249Z,3.10
2023-03-21T08:58:34.490Z,2.30
2023-03-21T09:01:03.904Z,1.53
2023-03-21T09:03:31.904Z,1.70
2023-03-21T09:06:00.773Z,1.63
2023-03-21T09:08:28.780Z,1.27
2023-03-21T09:10:57.360Z,1.87
2023-03-21T09:13:25.617Z,1.83
2023-03-21T09:15:54.203Z,1.47
2023-03-21T09:18:43.864Z,2.20
2023-03-21T09:21:16.596Z,1.53
2023-03-21T09:23:48.530Z,1.57
2023-03-21T09:26:16.939Z,1.53
2023-03-21T09:28:46.219Z,1.47
2023-03-21T09:31:16.647Z,1.10
2023-03-21T09:33:46.308Z,1.00
2023-03-21T09:36:15.513Z,1.23
2023-03-21T09:38:45.673Z,1.07
2023-03-21T09:41:22.295Z,1.40
2023-03-21T09:43:58.356Z,1.30
2023-03-21T09:46:28.728Z,0.83
2023-03-21T09:48:59.621Z,1.00
2023-03-21T09:51:29.367Z,1.30
2023-03-21T09:53:58.557Z,1.10
2023-03-21T09:56:27.143Z,0.90
2023-03-21T09:58:58.688Z,1.17
2023-03-21T10:01:28.488Z,1.20
2023-03-21T10:04:00.377Z,1.10
2023-03-21T10:06:30.595Z,0.90
2023-03-21T10:09:00.453Z,0.87
2023-03-21T10:11:29.713Z,0.80
2023-03-21T10:13:58.451Z,0.77
2023-03-21T10:16:28.874Z,1.13
2023-03-21T10:18:58.488Z,1.00
2023-03-21T10:21:56.385Z,0.70
2023-03-21T10:24:18.491Z,1.23
2023-03-21T10:26:46.456Z,0.80
2023-03-21T10:29:16.567Z,1.20
2023-03-21T10:31:44.822Z,1.07
2023-03-21T10:34:17.861Z,0.83
2023-03-21T10:36:46.434Z,0.70
2023-03-21T10:39:22.152Z,1.10
2023-03-21T10:41:50.132Z,1.13
2023-03-21T10:44:18.794Z,1.20
2023-03-21T10:46:54.283Z,1.43
2023-03-21T10:49:23.700Z,0.97
2023-03-21T10:51:52.947Z,0.70
2023-03-21T10:54:22.009Z,1.07
2023-03-21T10:56:57.010Z,1.20
2023-03-21T10:59:25.063Z,0.80
2023-03-21T11:01:55.270Z,1.60
2023-03-21T11:04:26.809Z,0.97
2023-03-21T11:06:55.916Z,0.97
2023-03-21T11:09:25.070Z,0.90
2023-03-21T11:11:54.792Z,1.33
2023-03-21T11:14:28.302Z,1.17
2023-03-21T11:16:56.381Z,1.00
2023-03-21T11:19:32.372Z,0.83
2023-03-21T11:22:00.430Z,1.10
2023-03-21T11:24:30.219Z,1.30
2023-03-21T11:26:59.753Z,1.30
2023-03-21T11:29:30.415Z,1.30
2023-03-21T11:32:02.520Z,1.40
2023-03-21T11:34:35.885Z,0.80
2023-03-21T11:37:04.273Z,1.17
2023-03-21T11:39:34.197Z,0.93
2023-03-21T11:42:02.184Z,1.20
2023-03-21T11:44:33.382Z,0.87
2023-03-21T11:47:01.900Z,1.00
2023-03-21T11:49:29.940Z,0.70
2023-03-21T11:52:07.557Z,1.77
2023-03-21T11:54:41.836Z,1.00
2023-03-21T11:57:11.860Z,0.90
2023-03-21T11:59:43.518Z,0.87
2023-03-21T12:02:45.238Z,1.30
2023-03-21T12:05:20.031Z,0.83
2023-03-21T12:07:53.345Z,0.80
2023-03-21T12:10:32.231Z,0.80
2023-03-21T12:13:05.650Z,1.30
2023-03-21T12:15:37.320Z,1.20
2023-03-21T12:18:08.042Z,1.43
2023-03-21T12:20:42.446Z,1.00
2023-03-21T12:23:21.955Z,1.10
2023-03-21T12:25:54.209Z,1.20
2023-03-21T12:28:33.012Z,1.10
2023-03-21T12:31:05.441Z,0.80
2023-03-21T12:33:43.158Z,1.10
2023-03-21T12:36:32.682Z,1.63
2023-03-21T12:39:06.838Z,0.63
2023-03-21T12:41:35.543Z,1.20
2023-03-21T12:44:04.874Z,1.17
2023-03-21T12:46:35.708Z,0.93
2023-03-21T12:49:04.676Z,0.70
2023-03-21T12:51:34.138Z,1.10
2023-03-21T12:54:12.290Z,1.60
2023-03-21T12:56:42.988Z,0.97
2023-03-21T12:59:17.361Z,1.47
2023-03-21T13:01:45.334Z,1.20
2023-03-21T13:04:36.781Z,1.57
2023-03-21T13:07:06.495Z,1.10
2023-03-21T13:09:38.423Z,1.00
2023-03-21T13:12:23.586Z,0.90
2023-03-21T13:15:07.813Z,0.90
2023-03-21T13:17:40.175Z,1.00
2023-03-21T13:20:12.036Z,1.67
2023-03-21T13:22:40.220Z,1.10
2023-03-21T13:25:18.265Z,1.13
2023-03-21T13:27:51.774Z,1.20
2023-03-21T13:30:21.337Z,0.83
2023-03-21T13:32:50.453Z,0.93
2023-03-21T13:35:20.593Z,0.63
2023-03-21T13:37:51.888Z,1.20
2023-03-21T13:40:24.905Z,0.90
2023-03-21T13:42:54.147Z,1.10
2023-03-21T13:45:29.199Z,1.43
2023-03-21T13:47:57.835Z,1.03
2023-03-21T13:50:30.769Z,0.97
2023-03-21T13:53:24.401Z,1.00
2023-03-21T13:56:26.712Z,1.20
2023-03-21T13:58:56.712Z,0.80
2023-03-21T14:01:39.802Z,0.80
2023-03-21T14:04:12.575Z,0.80
2023-03-21T14:06:49.063Z,0.93
2023-03-21T14:09:21.346Z,0.83
2023-03-21T14:11:54.661Z,1.00
2023-03-21T14:14:26.158Z,1.07
2023-03-21T14:16:55.357Z,0.90
2023-03-21T14:19:29.172Z,1.17
2023-03-21T14:21:57.160Z,0.87
2023-03-21T14:24:26.051Z,0.90
2023-03-21T14:26:58.974Z,0.80
2023-03-21T14:29:29.025Z,0.90
2023-03-21T14:31:59.920Z,0.90
2023-03-21T14:34:28.198Z,0.90
2023-03-21T14:36:58.673Z,1.00
2023-03-21T14:39:28.807Z,0.73
2023-03-21T14:41:58.782Z,0.90
2023-03-21T14:44:27.936Z,0.90
2023-03-21T14:47:00.588Z,0.93
2023-03-21T14:49:29.491Z,0.80
2023-03-21T14:51:58.581Z,0.80
2023-03-21T14:54:27.301Z,0.80
2023-03-21T14:57:01.293Z,1.00
2023-03-21T14:59:33.156Z,0.97
2023-03-21T15:02:02.688Z,0.90
2023-03-21T15:04:31.806Z,0.77
2023-03-21T15:07:03.387Z,0.73
2023-03-21T15:09:39.744Z,0.90
2023-03-21T15:12:10.861Z,0.80
2023-03-21T15:14:39.052Z,0.90
2023-03-21T15:17:09.207Z,0.83
2023-03-21T15:19:38.553Z,0.50
2023-03-21T15:22:10.286Z,0.73
2023-03-21T15:24:40.394Z,0.70
2023-03-21T15:27:13.729Z,1.10
2023-03-21T15:29:43.354Z,0.63
2023-03-21T15:32:16.247Z,1.00
2023-03-21T15:34:44.604Z,0.97
2023-03-21T15:37:17.154Z,0.80
2023-03-21T15:39:45.212Z,1.30
2023-03-21T15:42:31.104Z,1.37
2023-03-21T15:45:03.398Z,1.00
2023-03-21T15:47:45.583Z,1.50
2023-03-21T15:50:23.471Z,1.13
2023-03-21T15:52:52.045Z,1.13
2023-03-21T15:55:27.141Z,1.07
2023-03-21T15:58:01.355Z,1.17
2023-03-21T16:00:35.908Z,0.77
2023-03-21T16:03:06.492Z,1.00
2023-03-21T16:05:35.999Z,0.90
2023-03-21T16:08:08.987Z,1.17
2023-03-21T16:10:38.679Z,1.40
2023-03-21T16:13:08.138Z,0.80
2023-03-21T16:15:36.242Z,0.97
2023-03-21T16:18:06.211Z,0.90
2023-03-21T16:20:39.303Z,1.23
2023-03-21T16:23:08.138Z,0.90
2023-03-21T16:25:36.300Z,0.80
2023-03-21T16:28:04.312Z,1.37
2023-03-21T16:30:33.698Z,0.97
2023-03-21T16:33:01.723Z,0.77
2023-03-21T16:35:29.737Z,0.90
2023-03-21T16:37:58.167Z,1.30
2023-03-21T16:40:28.834Z,1.13
2023-03-21T16:42:56.812Z,0.83
2023-03-21T16:45:24.838Z,1.20
2023-03-21T16:47:54.726Z,1.17
2023-03-21T16:50:26.743Z,1.40
2023-03-21T16:52:54.892Z,1.10
2023-03-21T16:55:22.897Z,0.90
2023-03-21T16:57:52.485Z,0.80
2023-03-21T17:00:25.731Z,1.00
2023-03-21T17:02:58.909Z,1.40
2023-03-21T17:05:29.004Z,1.10
2023-03-21T17:07:57.293Z,0.90
2023-03-21T17:10:27.355Z,1.17
2023-03-21T17:12:55.430Z,1.10
2023-03-21T17:15:23.401Z,1.30
2023-03-21T17:17:52.067Z,1.10
2023-03-21T17:20:23.021Z,1.40
2023-03-21T17:22:52.937Z,1.30
2023-03-21T17:25:21.454Z,1.83
2023-03-21T17:27:56.822Z,2.30
2023-03-21T17:30:27.897Z,2.13
2023-03-21T17:32:56.143Z,2.10
2023-03-21T17:35:27.069Z,1.70
2023-03-21T17:37:58.420Z,3.23
2023-03-21T17:40:27.789Z,2.53
2023-03-21T17:42:56.191Z,2.30
2023-03-21T17:45:24.208Z,2.20
2023-03-21T17:47:52.583Z,37.50
2023-03-21T17:50:22.605Z,17.47
2023-03-21T17:52:52.218Z,14.73
2023-03-21T17:55:21.315Z,16.77
2023-03-21T17:57:49.363Z,13.67
2023-03-21T18:00:20.988Z,8.93
2023-03-21T18:02:49.368Z,8.50
2023-03-21T18:05:17.456Z,8.07
2023-03-21T18:08:08.646Z,8.77
2023-03-21T18:10:35.594Z,5.13
2023-03-21T18:13:03.875Z,5.60
2023-03-21T18:15:31.887Z,6.83
2023-03-21T18:18:04.343Z,4.13
2023-03-21T18:23:21.427Z,3.67
2023-03-21T18:25:53.288Z,3.00
2023-03-21T18:28:21.763Z,3.07
2023-03-21T18:31:07.852Z,2.10
2023-03-21T18:33:39.039Z,2.17
2023-03-21T18:36:08.206Z,3.13
2023-03-21T18:38:36.490Z,2.53
2023-03-21T18:41:06.206Z,2.33
2023-03-21T18:44:05.889Z,2.33
2023-03-21T18:46:23.073Z,1.70
2023-03-21T18:48:51.777Z,1.33
2023-03-21T18:51:21.870Z,2.53
2023-03-21T18:53:49.886Z,1.57
2023-03-21T18:57:13.061Z,1.57
2023-03-21T18:59:11.741Z,1.30
2023-03-21T19:01:39.809Z,1.43
2023-03-21T19:04:21.507Z,1.93
2023-03-21T19:06:51.667Z,1.43
2023-03-21T19:09:19.964Z,1.10
2023-03-21T19:11:49.577Z,1.20
2023-03-21T19:14:17.946Z,1.40
2023-03-21T19:17:34.198Z,1.43
2023-03-21T19:19:35.139Z,1.83
2023-03-21T19:22:03.611Z,1.20
2023-03-21T19:24:31.925Z,1.20
2023-03-21T19:27:01.403Z,1.20
2023-03-21T19:29:30.060Z,0.93
2023-03-21T19:31:58.099Z,1.30
2023-03-21T19:34:26.567Z,0.70
2023-03-21T19:36:55.128Z,0.70
2023-03-21T19:39:24.028Z,0.90
2023-03-21T19:41:55.335Z,0.90
2023-03-21T19:44:33.393Z,1.10
2023-03-21T19:47:01.756Z,0.80
2023-03-21T19:49:56.487Z,0.80
2023-03-21T19:52:21.609Z,0.80
2023-03-21T19:54:51.279Z,0.73
2023-03-21T19:57:20.582Z,0.70
2023-03-21T19:59:54.494Z,1.27
2023-03-21T20:02:35.057Z,0.60
2023-03-21T20:05:04.215Z,0.87
2023-03-21T20:07:33.364Z,0.70
2023-03-21T20:10:01.695Z,1.33
2023-03-21T20:12:29.755Z,0.60
2023-03-21T20:15:12.149Z,0.60
2023-03-21T20:17:45.133Z,0.77
2023-03-21T20:20:17.435Z,0.67
2023-03-21T20:23:07.361Z,0.63
2023-03-21T20:25:36.474Z,0.50
2023-03-21T20:28:25.940Z,0.80
2023-03-21T20:30:56.830Z,0.80
2023-03-21T20:33:25.209Z,0.60
2023-03-21T20:38:47.671Z,0.37
2023-03-21T20:41:16.082Z,0.60
2023-03-21T20:44:39.226Z,0.70
2023-03-21T20:46:35.288Z,0.43
2023-03-21T20:49:06.709Z,0.77
2023-03-21T20:54:24.958Z,1.10
2023-03-21T20:56:53.247Z,0.77
2023-03-21T20:59:27.113Z,0.77
2023-03-21T21:01:57.749Z,1.00
2023-03-21T21:04:46.990Z,0.60
2023-03-21T21:07:17.127Z,0.60
2023-03-21T21:09:46.328Z,0.80
2023-03-21T21:12:15.035Z,1.20
2023-03-21T21:14:43.620Z,0.90
2023-03-21T21:20:02.330Z,0.90
2023-03-21T21:22:31.577Z,1.30
2023-03-21T21:24:59.915Z,1.03
2023-03-21T21:27:28.581Z,1.10
2023-03-21T21:29:57.504Z,1.00
2023-03-21T21:32:26.818Z,0.90
2023-03-21T21:34:57.339Z,1.10
2023-03-21T21:37:25.978Z,0.90
2023-03-21T21:39:54.043Z,1.20
2023-03-21T21:42:22.406Z,0.80
2023-03-21T21:44:50.334Z,1.47
2023-03-21T21:47:19.024Z,1.00
2023-03-21T21:49:48.521Z,0.80
2023-03-21T21:52:24.096Z,0.97
2023-03-21T21:54:52.463Z,1.00
2023-03-21T21:57:20.425Z,1.10
2023-03-21T21:59:48.386Z,0.93
2023-03-21T22:02:17.150Z,0.90
2023-03-21T22:04:45.189Z,1.13
2023-03-21T22:07:15.149Z,0.80
2023-03-21T22:09:45.618Z,1.20
2023-03-21T22:12:13.931Z,0.83
2023-03-21T22:14:41.961Z,1.20
2023-03-21T22:17:09.948Z,0.90
2023-03-21T22:19:40.284Z,0.90
2023-03-21T22:22:08.546Z,0.90
2023-03-21T22:24:38.299Z,1.43
2023-03-21T22:27:06.678Z,1.37
2023-03-21T22:29:35.412Z,0.73
2023-03-21T22:32:03.740Z,0.87
2023-03-21T22:34:32.060Z,0.93
2023-03-21T22:37:02.507Z,1.03
2023-03-21T22:39:32.399Z,1.17
2023-03-21T22:42:04.398Z,0.90
2023-03-21T22:44:35.556Z,1.13
2023-03-21T22:47:03.990Z,1.57
2023-03-21T22:49:32.963Z,1.00
2023-03-21T22:52:03.237Z,1.60
2023-03-21T22:54:31.933Z,1.40
2023-03-21T22:57:04.233Z,1.07
2023-03-21T22:59:36.014Z,1.13
2023-03-21T23:02:04.343Z,0.93
2023-03-21T23:04:32.682Z,1.40
2023-03-21T23:07:01.230Z,1.03
2023-03-21T23:09:29.285Z,1.50
2023-03-21T23:11:57.246Z,0.93
2023-03-21T23:14:27.005Z,0.80
2023-03-21T23:16:55.049Z,1.03
2023-03-21T23:19:25.376Z,0.70
2023-03-21T23:21:53.686Z,0.90
2023-03-21T23:24:21.949Z,0.83
2023-03-21T23:26:49.941Z,0.67
2023-03-21T23:29:18.222Z,0.80
2023-03-21T23:31:47.762Z,0.80
2023-03-21T23:34:16.114Z,0.67
2023-03-21T23:36:44.079Z,1.20
2023-03-21T23:39:12.414Z,0.80
2023-03-21T23:41:42.842Z,0.60
2023-03-21T23:44:13.255Z,0.57
2023-03-21T23:46:41.557Z,0.60
2023-03-21T23:49:11.266Z,0.67
2023-03-21T23:51:40.091Z,0.53
2023-03-21T23:54:08.685Z,0.37
2023-03-21T23:56:37.393Z,1.13
2023-03-21T23:59:06.235Z,0.70
